Time;durP1;ratioP1;P1;durP2;ratioP2;P2;SDS_P1;SDS_P2;PMS_P1;PMS_P2;Temp;Humidity;BMP_temperature;BMP_pressure;BME280_temperature;BME280_humidity;BME280_pressure;Samples;Min_cycle;Max_cycle;Signal;HPM_P1;HPM_P2
2021/11/23 00:00:08;;;;;;;18.93;9.30;;;3.60;99.90;;;;;;5119018;27;37697;-73
2021/11/23 00:02:35;;;;;;;14.83;9.07;;;3.50;99.90;;;;;;5133797;27;47197;-74
2021/11/23 00:05:02;;;;;;;13.90;8.87;;;3.50;99.90;;;;;;5131315;27;39295;-74
2021/11/23 00:07:28;;;;;;;17.13;8.90;;;3.40;99.90;;;;;;5128376;27;47354;-74
2021/11/23 00:09:54;;;;;;;15.67;8.87;;;3.40;99.90;;;;;;5130439;27;39318;-73
2021/11/23 00:12:20;;;;;;;22.07;12.23;;;3.40;99.90;;;;;;5131854;27;38818;-74
2021/11/23 00:14:47;;;;;;;19.07;9.93;;;3.30;99.90;;;;;;5146856;27;37949;-74
2021/11/23 00:17:13;;;;;;;17.03;9.03;;;3.30;99.90;;;;;;5141039;27;40046;-74
2021/11/23 00:19:39;;;;;;;17.87;9.53;;;3.20;99.90;;;;;;5133198;27;38989;-74
2021/11/23 00:22:05;;;;;;;21.80;9.50;;;3.30;99.90;;;;;;5154698;27;38179;-74
2021/11/23 00:24:31;;;;;;;17.70;9.07;;;3.20;99.90;;;;;;5132666;27;37545;-74
2021/11/23 00:26:57;;;;;;;16.73;8.90;;;3.20;99.90;;;;;;5131585;27;39548;-74
2021/11/23 00:29:23;;;;;;;27.13;9.30;;;3.10;99.90;;;;;;5136260;27;40040;-74
2021/11/23 00:31:50;;;;;;;18.77;9.67;;;3.10;99.90;;;;;;5155434;27;38488;-74
2021/11/23 00:34:16;;;;;;;16.57;7.97;;;3.10;99.90;;;;;;5152808;27;38344;-74
2021/11/23 00:36:42;;;;;;;19.20;9.90;;;3.00;99.90;;;;;;5130857;27;38937;-74
2021/11/23 00:39:08;;;;;;;12.87;8.17;;;3.00;99.90;;;;;;5133865;27;40214;-74
2021/11/23 00:41:34;;;;;;;20.23;10.20;;;3.00;99.90;;;;;;5119064;27;39087;-74
2021/11/23 00:44:00;;;;;;;24.23;9.20;;;3.10;99.90;;;;;;5113768;27;37953;-72
2021/11/23 00:46:26;;;;;;;19.97;9.73;;;3.20;99.90;;;;;;5130485;27;48213;-74
2021/11/23 00:48:52;;;;;;;20.03;9.97;;;3.30;99.90;;;;;;5112712;27;39947;-74
2021/11/23 00:51:19;;;;;;;16.10;8.63;;;3.40;99.90;;;;;;5136414;27;38795;-73
2021/11/23 00:53:46;;;;;;;15.37;8.77;;;3.50;99.90;;;;;;5131169;27;38153;-73
2021/11/23 00:56:12;;;;;;;19.93;9.37;;;3.60;99.90;;;;;;5127889;27;39322;-74
2021/11/23 00:58:38;;;;;;;16.50;8.27;;;3.80;99.90;;;;;;5154135;27;38873;-74
2021/11/23 01:01:04;;;;;;;20.00;10.10;;;3.90;99.90;;;;;;5132340;27;40037;-74
2021/11/23 01:03:32;;;;;;;22.23;10.23;;;3.90;99.90;;;;;;5152482;27;37193;-73
2021/11/23 01:06:00;;;;;;;23.57;10.37;;;4.00;99.90;;;;;;5121111;27;39206;-73
2021/11/23 01:08:30;;;;;;;27.23;10.50;;;4.10;99.90;;;;;;5133292;27;47375;-74
2021/11/23 01:10:57;;;;;;;19.83;10.53;;;4.20;99.90;;;;;;5145230;27;39457;-74
2021/11/23 01:13:24;;;;;;;17.77;9.67;;;4.20;99.90;;;;;;5142044;27;36121;-74
2021/11/23 01:15:50;;;;;;;17.63;8.73;;;4.20;99.90;;;;;;5136362;27;40057;-74
2021/11/23 01:18:16;;;;;;;17.67;9.30;;;4.30;99.90;;;;;;5154710;27;38944;-74
2021/11/23 01:20:42;;;;;;;19.87;9.60;;;4.40;99.90;;;;;;5130907;27;39398;-74
2021/11/23 01:23:08;;;;;;;12.00;7.77;;;4.40;99.90;;;;;;5128953;27;37179;-74
2021/11/23 01:25:35;;;;;;;22.07;9.70;;;4.60;99.90;;;;;;5130692;27;39365;-74
2021/11/23 01:28:02;;;;;;;19.23;11.00;;;4.70;99.90;;;;;;5131180;27;38175;-74
2021/11/23 01:30:28;;;;;;;21.00;8.70;;;4.70;99.90;;;;;;5129078;27;37270;-74
2021/11/23 01:32:54;;;;;;;18.27;9.33;;;4.80;99.90;;;;;;5131179;27;36755;-74
2021/11/23 01:35:21;;;;;;;20.30;10.17;;;4.90;99.90;;;;;;5132270;27;39136;-75
2021/11/23 01:37:48;;;;;;;19.60;9.90;;;4.90;99.90;;;;;;5135595;27;39618;-73
2021/11/23 01:40:17;;;;;;;23.97;10.47;;;5.10;99.90;;;;;;5138745;27;39104;-74
2021/11/23 01:42:44;;;;;;;21.37;10.33;;;5.10;99.90;;;;;;5130962;27;38036;-72
2021/11/23 01:45:12;;;;;;;15.50;7.53;;;5.20;99.90;;;;;;5139398;27;38783;-74
2021/11/23 01:47:38;;;;;;;19.03;9.23;;;5.20;99.90;;;;;;5134950;27;39029;-75
2021/11/23 01:50:06;;;;;;;17.03;9.40;;;5.30;99.90;;;;;;5132012;27;38616;-73
2021/11/23 01:52:32;;;;;;;21.83;9.83;;;5.30;99.90;;;;;;5111000;27;38038;-71
2021/11/23 01:55:00;;;;;;;21.90;9.70;;;5.30;99.90;;;;;;5137289;27;38417;-74
2021/11/23 01:57:26;;;;;;;14.50;7.23;;;5.40;99.90;;;;;;5134872;27;42315;-72
2021/11/23 01:59:53;;;;;;;16.00;9.33;;;5.40;99.90;;;;;;5115070;27;38796;-71
2021/11/23 02:02:19;;;;;;;18.67;8.33;;;5.50;99.90;;;;;;5112981;27;37680;-72
2021/11/23 02:04:45;;;;;;;20.33;8.73;;;5.60;99.90;;;;;;5117017;27;39477;-71
2021/11/23 02:07:13;;;;;;;18.53;8.60;;;5.60;99.90;;;;;;5116463;27;39757;-71
2021/11/23 02:09:40;;;;;;;20.77;8.37;;;5.60;99.90;;;;;;5117991;27;39794;-72
2021/11/23 02:12:06;;;;;;;16.13;8.73;;;5.70;99.90;;;;;;5136541;27;37304;-71
2021/11/23 02:14:33;;;;;;;19.53;8.50;;;5.70;99.90;;;;;;5139837;27;38774;-71
2021/11/23 02:16:59;;;;;;;16.00;8.23;;;5.70;99.90;;;;;;5126895;27;39257;-72
2021/11/23 02:19:25;;;;;;;16.83;8.53;;;5.80;99.90;;;;;;5136686;27;38347;-72
2021/11/23 02:21:51;;;;;;;20.50;7.30;;;5.80;99.90;;;;;;5139500;27;37933;-72
2021/11/23 02:24:17;;;;;;;14.27;7.30;;;5.80;99.90;;;;;;5121137;27;39670;-72
2021/11/23 02:26:43;;;;;;;22.57;9.40;;;5.90;99.90;;;;;;5116101;27;39320;-72
2021/11/23 02:29:09;;;;;;;14.80;6.30;;;5.90;99.90;;;;;;5122921;27;39029;-72
2021/11/23 02:31:35;;;;;;;16.03;7.77;;;6.00;99.90;;;;;;5135337;27;35600;-72
2021/11/23 02:34:01;;;;;;;16.33;7.27;;;6.00;99.90;;;;;;5127079;27;39619;-72
2021/11/23 02:36:27;;;;;;;16.07;7.20;;;6.10;99.90;;;;;;5126350;27;38656;-72
2021/11/23 02:38:54;;;;;;;14.07;5.80;;;6.10;99.90;;;;;;5124516;27;39169;-72
2021/11/23 02:41:22;;;;;;;13.10;6.47;;;6.10;99.90;;;;;;5121626;27;38899;-72
2021/11/23 02:43:48;;;;;;;18.83;8.30;;;6.10;99.90;;;;;;5138242;27;38793;-72
2021/11/23 02:46:14;;;;;;;12.57;5.77;;;6.20;99.90;;;;;;5133371;27;39321;-71
2021/11/23 02:48:41;;;;;;;13.93;7.27;;;6.20;99.90;;;;;;5117077;27;38644;-72
2021/11/23 02:51:17;;;;;;;19.23;7.80;;;6.30;99.90;;;;;;5135227;27;37295;-72
2021/11/23 02:53:48;;;;;;;17.67;7.17;;;6.30;99.90;;;;;;5135082;27;39314;-72
2021/11/23 02:56:15;;;;;;;19.50;7.40;;;6.40;99.90;;;;;;5128037;27;38801;-71
2021/11/23 02:58:47;;;;;;;13.33;6.73;;;6.40;99.90;;;;;;5130979;27;39375;-73
2021/11/23 03:01:16;;;;;;;15.23;6.17;;;6.40;99.90;;;;;;5135222;27;37817;-72
2021/11/23 03:03:42;;;;;;;13.83;5.87;;;6.40;99.90;;;;;;5138980;27;39512;-72
2021/11/23 03:06:12;;;;;;;18.10;6.70;;;6.40;99.90;;;;;;5134397;27;40046;-73
2021/11/23 03:08:40;;;;;;;15.73;5.77;;;6.40;99.90;;;;;;5137494;27;37657;-72
2021/11/23 03:11:06;;;;;;;14.87;6.53;;;6.50;99.90;;;;;;5120786;27;37794;-72
2021/11/23 03:13:32;;;;;;;10.87;4.60;;;6.50;99.90;;;;;;5120018;27;39317;-72
2021/11/23 03:15:59;;;;;;;17.87;6.73;;;6.40;99.90;;;;;;5143487;27;41182;-72
2021/11/23 03:18:25;;;;;;;13.13;6.50;;;6.40;99.90;;;;;;5130472;27;39881;-72
2021/11/23 03:20:51;;;;;;;11.57;5.40;;;6.40;99.90;;;;;;5126786;27;37706;-72
2021/11/23 03:23:18;;;;;;;10.80;5.43;;;6.40;99.90;;;;;;5131523;27;40366;-72
2021/11/23 03:25:45;;;;;;;10.33;4.73;;;6.40;99.90;;;;;;5134115;27;39557;-72
2021/11/23 03:28:11;;;;;;;13.00;6.00;;;6.40;99.90;;;;;;5128648;27;40383;-72
2021/11/23 03:30:38;;;;;;;15.63;5.93;;;6.50;99.90;;;;;;5132245;27;37930;-72
2021/11/23 03:33:06;;;;;;;16.23;5.07;;;6.50;99.90;;;;;;5135396;27;39537;-72
2021/11/23 03:35:36;;;;;;;19.20;6.03;;;6.60;99.90;;;;;;5126703;27;37199;-72
2021/11/23 03:38:04;;;;;;;14.30;6.03;;;6.60;99.90;;;;;;5136599;27;38349;-72
2021/11/23 03:40:32;;;;;;;14.30;6.07;;;6.70;99.90;;;;;;5121519;27;37369;-73
2021/11/23 03:42:59;;;;;;;13.27;5.47;;;6.70;99.90;;;;;;5120514;27;40031;-72
2021/11/23 03:45:26;;;;;;;15.03;5.40;;;6.70;99.90;;;;;;5137426;27;39046;-72
2021/11/23 03:47:54;;;;;;;12.87;5.03;;;6.70;99.90;;;;;;5136641;27;39388;-73
2021/11/23 03:50:20;;;;;;;18.73;6.37;;;6.70;99.90;;;;;;5138403;27;37784;-72
2021/11/23 03:52:48;;;;;;;17.10;6.03;;;6.70;99.90;;;;;;5115310;27;39062;-72
2021/11/23 03:55:17;;;;;;;11.53;5.27;;;6.70;99.90;;;;;;5130480;27;39229;-72
2021/11/23 03:57:45;;;;;;;11.67;5.67;;;6.80;99.90;;;;;;5125954;27;39405;-73
2021/11/23 04:00:14;;;;;;;14.93;5.87;;;6.70;99.90;;;;;;5133172;27;37578;-72
2021/11/23 04:02:42;;;;;;;9.10;5.27;;;6.80;99.90;;;;;;5135126;27;38578;-72
2021/11/23 04:05:09;;;;;;;10.43;4.63;;;6.80;99.90;;;;;;5136382;27;38129;-72
2021/11/23 04:07:39;;;;;;;13.20;5.40;;;6.80;99.90;;;;;;5143818;27;38000;-72
2021/11/23 04:10:09;;;;;;;15.47;6.23;;;6.90;99.90;;;;;;5135107;27;37842;-73
2021/11/23 04:12:36;;;;;;;8.77;4.27;;;6.90;99.90;;;;;;5137212;27;38610;-72
2021/11/23 04:15:03;;;;;;;12.37;6.27;;;7.00;99.90;;;;;;5134213;27;38576;-72
2021/11/23 04:17:30;;;;;;;10.67;4.23;;;7.00;99.90;;;;;;5114614;27;47266;-72
2021/11/23 04:19:56;;;;;;;10.83;2.80;;;7.10;99.90;;;;;;5123582;27;37762;-72
2021/11/23 04:22:22;;;;;;;12.80;2.83;;;7.50;99.90;;;;;;5134152;27;39768;-71
2021/11/23 04:24:48;;;;;;;12.43;2.33;;;7.90;99.90;;;;;;5132984;27;38624;-72
2021/11/23 04:27:14;;;;;;;14.73;2.50;;;8.20;99.90;;;;;;5131838;27;38136;-74
2021/11/23 04:29:40;;;;;;;7.30;2.40;;;8.40;99.90;;;;;;5112136;27;38654;-74
2021/11/23 04:32:07;;;;;;;16.40;2.60;;;8.60;99.90;;;;;;5115635;27;39081;-74
2021/11/23 04:34:33;;;;;;;14.90;2.63;;;8.80;99.90;;;;;;5125226;27;40224;-73
2021/11/23 04:36:59;;;;;;;8.30;2.20;;;8.90;99.90;;;;;;5113623;27;39117;-74
2021/11/23 04:39:25;;;;;;;11.60;2.63;;;9.00;99.90;;;;;;5144598;27;37116;-74
2021/11/23 04:41:51;;;;;;;11.67;3.13;;;8.90;99.90;;;;;;5136688;27;37635;-74
2021/11/23 04:44:18;;;;;;;12.00;2.73;;;8.90;99.90;;;;;;5124451;27;39041;-74
2021/11/23 04:46:44;;;;;;;11.50;2.93;;;9.00;99.90;;;;;;5132985;27;39209;-74
2021/11/23 04:49:10;;;;;;;11.13;3.33;;;9.00;99.90;;;;;;5119476;27;39104;-73
2021/11/23 04:51:36;;;;;;;11.40;3.00;;;9.00;99.90;;;;;;5142269;27;38862;-74
2021/11/23 04:54:03;;;;;;;9.53;2.87;;;8.90;99.90;;;;;;5142502;27;39073;-74
2021/11/23 04:56:29;;;;;;;8.93;3.10;;;8.90;99.90;;;;;;5134840;27;38563;-74
2021/11/23 04:58:56;;;;;;;9.20;3.33;;;8.90;99.90;;;;;;5139327;27;37268;-73
2021/11/23 05:01:23;;;;;;;13.57;3.67;;;8.90;99.90;;;;;;5115598;27;39231;-73
2021/11/23 05:03:50;;;;;;;13.77;4.00;;;8.80;99.90;;;;;;5114350;27;39464;-74
2021/11/23 05:06:16;;;;;;;8.47;3.70;;;8.80;99.90;;;;;;5132891;27;39398;-74
2021/11/23 05:08:42;;;;;;;9.23;3.27;;;8.70;99.90;;;;;;5133978;27;39217;-74
2021/11/23 05:11:09;;;;;;;10.97;3.40;;;8.70;99.90;;;;;;5146549;27;39950;-74
2021/11/23 05:13:36;;;;;;;11.13;3.43;;;8.70;99.90;;;;;;5151511;27;39640;-74
2021/11/23 05:16:02;;;;;;;13.07;3.30;;;8.70;99.90;;;;;;5133211;27;37586;-75
2021/11/23 05:18:28;;;;;;;8.23;2.67;;;8.70;99.90;;;;;;5130021;27;37420;-73
2021/11/23 05:20:54;;;;;;;7.37;3.30;;;8.70;99.90;;;;;;5134607;27;37960;-75
2021/11/23 05:23:20;;;;;;;12.77;3.53;;;8.70;99.90;;;;;;5130916;27;39768;-75
2021/11/23 05:25:46;;;;;;;10.27;3.07;;;8.70;99.90;;;;;;5150172;27;38234;-75
2021/11/23 05:28:12;;;;;;;7.63;3.00;;;8.70;99.90;;;;;;5128934;27;38946;-75
2021/11/23 05:30:38;;;;;;;5.73;2.73;;;8.60;99.90;;;;;;5130196;27;39806;-75
2021/11/23 05:33:05;;;;;;;6.87;2.80;;;8.70;99.90;;;;;;5148087;27;38968;-75
2021/11/23 05:35:32;;;;;;;8.63;3.20;;;8.70;99.90;;;;;;5157207;27;38450;-75
2021/11/23 05:37:58;;;;;;;7.00;3.13;;;8.60;99.90;;;;;;5139195;27;35841;-75
2021/11/23 05:40:24;;;;;;;9.57;3.50;;;8.60;99.90;;;;;;5149631;27;38810;-75
2021/11/23 05:42:50;;;;;;;4.77;2.77;;;8.60;99.90;;;;;;5119475;27;39449;-75
2021/11/23 05:45:16;;;;;;;9.00;2.90;;;8.60;99.90;;;;;;5121601;27;38717;-75
2021/11/23 05:47:42;;;;;;;8.87;3.33;;;8.60;99.90;;;;;;5148916;27;39942;-75
2021/11/23 05:50:09;;;;;;;6.53;3.30;;;8.60;99.90;;;;;;5138564;27;38564;-75
2021/11/23 05:52:35;;;;;;;8.17;3.73;;;8.70;99.90;;;;;;5126651;27;39634;-75
2021/11/23 05:55:03;;;;;;;8.97;2.90;;;8.60;99.90;;;;;;5134800;27;38366;-73
2021/11/23 05:57:29;;;;;;;10.00;3.90;;;8.60;99.90;;;;;;5135590;27;36817;-73
2021/11/23 05:59:55;;;;;;;16.37;4.60;;;8.60;99.90;;;;;;5141175;27;38565;-74
2021/11/23 06:02:21;;;;;;;6.07;3.83;;;8.60;99.90;;;;;;5142094;27;39814;-74
2021/11/23 06:04:47;;;;;;;10.47;4.50;;;8.70;99.90;;;;;;5124839;27;38795;-73
2021/11/23 06:07:14;;;;;;;13.67;6.93;;;8.70;99.90;;;;;;5133458;27;37239;-73
2021/11/23 06:09:40;;;;;;;12.27;6.33;;;8.70;99.90;;;;;;5137107;27;39669;-73
2021/11/23 06:12:07;;;;;;;18.87;9.83;;;8.60;99.90;;;;;;5125484;27;39589;-74
2021/11/23 06:14:34;;;;;;;15.73;8.33;;;8.60;99.90;;;;;;5135126;27;38315;-73
2021/11/23 06:17:00;;;;;;;9.00;5.87;;;8.60;99.90;;;;;;5133864;27;37596;-73
2021/11/23 06:19:26;;;;;;;19.27;10.37;;;8.60;99.90;;;;;;5133401;27;39632;-73
2021/11/23 06:21:52;;;;;;;12.47;8.50;;;8.60;99.90;;;;;;5118040;27;38525;-74
2021/11/23 06:24:18;;;;;;;19.00;9.63;;;8.60;99.90;;;;;;5136330;27;38237;-73
2021/11/23 06:26:44;;;;;;;14.27;9.27;;;8.70;99.90;;;;;;5120909;27;37883;-73
2021/11/23 06:29:10;;;;;;;12.57;7.37;;;8.70;99.90;;;;;;5146473;27;38926;-73
2021/11/23 06:31:36;;;;;;;22.03;10.93;;;8.60;99.90;;;;;;5126082;27;40185;-74
2021/11/23 06:34:07;;;;;;;16.93;8.23;;;8.60;99.90;;;;;;5140433;27;38401;-74
2021/11/23 06:36:34;;;;;;;9.33;7.97;;;8.60;99.90;;;;;;5120574;27;37827;-74
2021/11/23 06:39:03;;;;;;;17.20;11.80;;;8.60;99.90;;;;;;5118596;27;39595;-74
2021/11/23 06:41:29;;;;;;;14.77;7.70;;;8.60;99.90;;;;;;5111436;27;47328;-73
2021/11/23 06:43:55;;;;;;;17.67;12.27;;;8.60;99.90;;;;;;5120983;27;39248;-73
2021/11/23 06:46:22;;;;;;;14.27;10.60;;;8.60;99.90;;;;;;5113650;27;37810;-73
2021/11/23 06:48:48;;;;;;;23.73;14.57;;;8.60;99.90;;;;;;5125733;27;40681;-73
2021/11/23 06:51:14;;;;;;;9.87;7.93;;;8.60;99.90;;;;;;5136536;27;39417;-74
2021/11/23 06:53:40;;;;;;;18.90;13.33;;;8.60;99.90;;;;;;5130156;27;38763;-75
2021/11/23 06:56:06;;;;;;;21.93;11.33;;;8.60;99.90;;;;;;5132988;27;37621;-73
2021/11/23 06:58:32;;;;;;;22.90;14.03;;;8.60;99.90;;;;;;5133078;27;40452;-75
2021/11/23 07:00:59;;;;;;;11.80;9.23;;;8.60;99.90;;;;;;5135554;27;37450;-74
2021/11/23 07:03:25;;;;;;;20.77;11.77;;;8.60;99.90;;;;;;5132247;27;39022;-74
2021/11/23 07:05:51;;;;;;;19.73;12.63;;;8.60;99.90;;;;;;5133201;27;38357;-74
2021/11/23 07:08:17;;;;;;;16.53;12.80;;;8.70;99.90;;;;;;5131209;27;39729;-73
2021/11/23 07:10:43;;;;;;;20.40;10.87;;;8.70;99.90;;;;;;5139389;27;37006;-74
2021/11/23 07:13:09;;;;;;;21.40;13.53;;;8.70;99.90;;;;;;5137768;27;38610;-74
2021/11/23 07:15:35;;;;;;;28.40;16.80;;;8.80;99.90;;;;;;5132313;27;38218;-74
2021/11/23 07:18:02;;;;;;;22.47;17.03;;;8.80;99.90;;;;;;5130079;27;41096;-74
2021/11/23 07:20:28;;;;;;;26.27;14.30;;;8.80;99.90;;;;;;5135729;27;40411;-74
2021/11/23 07:22:54;;;;;;;19.10;14.63;;;8.80;99.90;;;;;;5137005;27;38425;-74
2021/11/23 07:25:20;;;;;;;29.73;17.40;;;8.90;99.90;;;;;;5140385;27;37435;-74
2021/11/23 07:27:46;;;;;;;30.87;19.20;;;8.90;99.90;;;;;;5133240;27;39461;-73
2021/11/23 07:30:13;;;;;;;27.37;18.17;;;8.90;99.90;;;;;;5138625;27;37399;-74
2021/11/23 07:32:39;;;;;;;17.63;11.23;;;9.00;99.90;;;;;;5135260;27;39905;-73
2021/11/23 07:35:06;;;;;;;31.70;18.47;;;9.00;99.90;;;;;;5132005;27;37695;-76
2021/11/23 07:37:40;;;;;;;33.10;19.20;;;9.10;99.90;;;;;;5127780;27;39110;-76
2021/11/23 07:40:08;;;;;;;22.23;13.13;;;9.10;99.90;;;;;;5130094;27;40725;-75
2021/11/23 07:42:34;;;;;;;16.60;12.60;;;9.20;99.90;;;;;;5132133;27;38956;-76
2021/11/23 07:45:00;;;;;;;22.53;13.70;;;9.30;99.90;;;;;;5132888;27;38665;-76
2021/11/23 07:47:26;;;;;;;30.13;18.10;;;9.30;99.90;;;;;;5132229;27;39413;-75
2021/11/23 07:49:52;;;;;;;19.60;14.00;;;9.30;99.90;;;;;;5130084;27;39462;-75
2021/11/23 07:52:18;;;;;;;21.87;14.53;;;9.30;99.90;;;;;;5134666;27;39542;-73
2021/11/23 07:54:44;;;;;;;28.37;15.87;;;9.30;99.90;;;;;;5132897;27;39309;-75
2021/11/23 07:57:10;;;;;;;26.40;16.50;;;9.20;99.90;;;;;;5128684;27;40416;-75
2021/11/23 07:59:37;;;;;;;20.90;12.33;;;9.20;99.90;;;;;;5123605;27;39759;-74
2021/11/23 08:02:03;;;;;;;17.77;12.23;;;9.10;99.90;;;;;;5144327;27;39212;-72
2021/11/23 08:04:29;;;;;;;17.80;13.17;;;9.10;99.90;;;;;;5138081;27;38176;-73
2021/11/23 08:06:55;;;;;;;25.97;13.60;;;9.00;99.90;;;;;;5123756;27;37560;-73
2021/11/23 08:09:22;;;;;;;21.73;13.77;;;9.00;99.90;;;;;;5136326;27;39276;-73
2021/11/23 08:11:48;;;;;;;18.27;14.10;;;9.00;99.90;;;;;;5128883;27;38859;-74
2021/11/23 08:14:14;;;;;;;25.97;18.23;;;9.10;99.90;;;;;;5135213;27;38704;-74
2021/11/23 08:16:40;;;;;;;32.70;17.53;;;9.30;99.90;;;;;;5128918;27;38716;-73
2021/11/23 08:19:06;;;;;;;22.60;16.00;;;9.50;99.90;;;;;;5118846;27;39979;-73
2021/11/23 08:21:32;;;;;;;20.03;13.13;;;9.70;99.90;;;;;;5136575;27;38479;-73
2021/11/23 08:23:59;;;;;;;17.50;11.97;;;9.80;99.90;;;;;;5127056;27;34437;-75
2021/11/23 08:26:25;;;;;;;18.93;14.27;;;9.90;99.90;;;;;;5124218;27;39784;-74
2021/11/23 08:28:52;;;;;;;38.77;20.73;;;9.90;99.90;;;;;;5116044;27;38884;-73
2021/11/23 08:31:18;;;;;;;31.93;18.87;;;10.00;99.90;;;;;;5114430;27;38585;-72
2021/11/23 08:33:45;;;;;;;24.47;13.77;;;10.00;99.90;;;;;;5111676;27;38075;-74
2021/11/23 08:36:12;;;;;;;19.07;10.23;;;9.90;99.90;;;;;;5126857;27;39753;-75
2021/11/23 08:38:38;;;;;;;22.07;13.73;;;9.80;99.90;;;;;;5133531;27;38822;-74
2021/11/23 08:41:05;;;;;;;32.30;17.60;;;9.80;99.90;;;;;;5134454;27;38284;-75
2021/11/23 08:43:31;;;;;;;20.57;12.57;;;9.90;99.90;;;;;;5133153;27;38435;-74
2021/11/23 08:45:57;;;;;;;22.50;14.93;;;10.00;99.90;;;;;;5141291;27;39098;-75
2021/11/23 08:48:24;;;;;;;26.13;16.63;;;10.00;99.90;;;;;;5119400;27;39828;-73
2021/11/23 08:50:50;;;;;;;24.60;15.50;;;10.10;99.90;;;;;;5125508;27;38705;-74
2021/11/23 08:53:16;;;;;;;22.93;15.87;;;10.10;99.90;;;;;;5134664;27;37309;-75
2021/11/23 08:55:42;;;;;;;18.17;11.00;;;10.20;99.90;;;;;;5128996;27;38908;-72
2021/11/23 08:58:09;;;;;;;31.60;17.97;;;10.20;99.90;;;;;;5129641;27;39306;-74
2021/11/23 09:00:36;;;;;;;25.90;16.10;;;10.20;99.90;;;;;;5138704;27;39234;-74
2021/11/23 09:03:03;;;;;;;20.33;12.47;;;10.20;99.90;;;;;;5112927;27;37986;-74
2021/11/23 09:05:32;;;;;;;19.30;13.73;;;10.30;99.90;;;;;;5129701;27;38927;-74
2021/11/23 09:08:00;;;;;;;23.97;14.07;;;10.30;99.90;;;;;;5132676;27;38688;-75
2021/11/23 09:10:28;;;;;;;19.77;12.57;;;10.30;99.90;;;;;;5154383;27;38582;-73
2021/11/23 09:12:56;;;;;;;20.27;12.13;;;10.30;99.90;;;;;;5153130;27;36226;-73
2021/11/23 09:15:23;;;;;;;26.63;14.23;;;10.30;99.90;;;;;;5130471;27;39176;-73
2021/11/23 09:17:49;;;;;;;16.73;10.93;;;10.30;99.90;;;;;;5132652;27;38061;-74
2021/11/23 09:20:18;;;;;;;29.20;15.40;;;10.30;99.90;;;;;;5156735;27;38496;-74
2021/11/23 09:22:45;;;;;;;20.10;12.70;;;10.20;99.90;;;;;;5144750;27;39414;-74
2021/11/23 09:25:13;;;;;;;19.87;11.10;;;10.20;99.90;;;;;;5133431;27;39427;-73
2021/11/23 09:27:39;;;;;;;20.67;9.13;;;10.20;99.90;;;;;;5153641;27;39038;-73
2021/11/23 09:30:09;;;;;;;22.57;13.23;;;10.20;99.90;;;;;;5136722;27;40124;-74
2021/11/23 09:32:36;;;;;;;30.50;15.57;;;10.30;99.90;;;;;;5130483;27;47326;-74
2021/11/23 09:35:03;;;;;;;22.40;12.57;;;10.50;99.90;;;;;;5123926;27;37898;-75
2021/11/23 09:37:29;;;;;;;14.73;10.40;;;10.70;99.90;;;;;;5123224;27;39415;-73
2021/11/23 09:39:55;;;;;;;16.70;12.10;;;11.00;99.90;;;;;;5135731;27;39130;-74
2021/11/23 09:42:22;;;;;;;27.83;12.53;;;11.30;99.90;;;;;;5123971;27;39551;-74
2021/11/23 09:44:50;;;;;;;18.00;9.10;;;11.60;99.90;;;;;;5149692;27;38780;-74
2021/11/23 09:47:16;;;;;;;24.80;11.87;;;11.60;99.90;;;;;;5137093;27;39148;-74
2021/11/23 09:49:43;;;;;;;16.83;9.70;;;11.60;99.90;;;;;;5134362;27;38751;-74
2021/11/23 09:52:09;;;;;;;14.40;8.13;;;11.70;99.90;;;;;;5131046;27;38392;-73
2021/11/23 09:54:39;;;;;;;19.95;9.43;;;11.70;99.90;;;;;;5131021;27;38643;-75
2021/11/23 09:57:05;;;;;;;13.15;8.18;;;11.80;99.90;;;;;;5135827;27;39092;-73
2021/11/23 09:59:31;;;;;;;14.98;8.98;;;11.90;99.90;;;;;;5139897;27;38101;-72
2021/11/23 10:02:00;;;;;;;19.63;11.82;;;12.10;99.90;;;;;;5142842;27;37964;-74
2021/11/23 10:04:28;;;;;;;17.92;11.20;;;12.30;99.90;;;;;;5131500;27;39733;-74
2021/11/23 10:07:06;;;;;;;13.32;9.18;;;12.30;99.90;;;;;;5155660;27;38873;-74
2021/11/23 10:09:42;;;;;;;11.75;8.05;;;12.10;99.90;;;;;;5131346;27;47004;-74
2021/11/23 10:12:20;;;;;;;14.68;3.75;;;12.00;99.90;;;;;;5120434;27;37452;-74
2021/11/23 10:15:17;;;;;;;5.63;2.73;;;11.90;99.90;;;;;;5137485;27;38948;-73
2021/11/23 10:17:46;;;;;;;7.57;2.40;;;11.70;99.90;;;;;;5123533;27;48496;-75
2021/11/23 10:20:36;;;;;;;7.13;2.00;;;11.70;99.90;;;;;;5120684;27;40201;-74
2021/11/23 10:23:32;;;;;;;14.77;2.40;;;11.60;99.90;;;;;;5130019;27;39157;-75
2021/11/23 10:26:26;;;;;;;6.27;1.80;;;11.60;99.90;;;;;;5135094;27;38936;-74
2021/11/23 10:29:03;;;;;;;6.73;2.47;;;11.60;99.90;;;;;;5131121;27;47292;-74
2021/11/23 10:31:48;;;;;;;8.33;2.40;;;11.70;99.90;;;;;;5123528;27;47793;-74
2021/11/23 10:34:17;;;;;;;8.07;2.27;;;11.70;99.90;;;;;;5139251;27;37094;-74
2021/11/23 10:36:48;;;;;;;16.60;3.40;;;11.80;99.90;;;;;;5125911;27;37689;-74
2021/11/23 10:39:17;;;;;;;14.13;2.60;;;11.80;99.90;;;;;;5135081;27;40255;-75
2021/11/23 10:41:59;;;;;;;11.53;3.60;;;11.80;99.90;;;;;;5136995;27;38425;-73
2021/11/23 10:44:28;;;;;;;8.97;3.33;;;11.70;99.90;;;;;;5142939;27;37275;-74
2021/11/23 10:47:03;;;;;;;11.33;3.97;;;11.80;99.90;;;;;;5134087;27;40323;-73
2021/11/23 10:49:31;;;;;;;10.33;3.97;;;12.00;99.90;;;;;;5135933;27;48954;-73
2021/11/23 10:51:58;;;;;;;16.10;5.47;;;12.10;99.90;;;;;;5143332;27;39495;-72
2021/11/23 10:54:24;;;;;;;11.00;4.10;;;12.20;99.90;;;;;;5133514;27;36030;-73
2021/11/23 10:57:10;;;;;;;13.15;4.93;;;12.40;99.90;;;;;;5132305;27;38298;-73
2021/11/23 10:59:39;;;;;;;14.57;5.05;;;12.60;99.90;;;;;;5131938;27;46947;-72
2021/11/23 11:02:06;;;;;;;10.27;4.38;;;12.70;99.90;;;;;;5134969;27;38403;-72
2021/11/23 11:04:34;;;;;;;8.73;3.35;;;12.70;99.90;;;;;;5118559;27;38547;-72
2021/11/23 11:07:03;;;;;;;12.50;3.55;;;12.70;99.90;;;;;;5158010;27;39816;-72
2021/11/23 11:09:30;;;;;;;10.15;2.60;;;12.70;99.90;;;;;;5141186;27;48406;-74
2021/11/23 11:11:56;;;;;;;5.63;2.42;;;12.40;99.90;;;;;;5134133;27;38880;-74
2021/11/23 11:14:23;;;;;;;10.27;3.08;;;12.20;99.90;;;;;;5130435;27;37004;-75
2021/11/23 11:16:50;;;;;;;7.97;1.73;;;12.00;99.90;;;;;;5134416;27;38648;-75
2021/11/23 11:19:17;;;;;;;6.17;2.30;;;11.90;99.90;;;;;;5130937;27;38709;-75
2021/11/23 11:21:49;;;;;;;3.50;1.60;;;11.80;99.90;;;;;;5133600;27;37952;-76
2021/11/23 11:24:40;;;;;;;9.80;1.92;;;11.80;99.90;;;;;;5137440;27;36069;-76
2021/11/23 11:27:33;;;;;;;3.95;1.20;;;11.80;99.90;;;;;;5119397;27;38158;-76
2021/11/23 11:30:29;;;;;;;6.85;1.48;;;11.80;99.90;;;;;;5115894;27;37777;-75
2021/11/23 11:33:04;;;;;;;5.70;1.67;;;12.00;99.90;;;;;;5142528;27;47419;-75
2021/11/23 11:35:49;;;;;;;2.65;0.85;;;12.00;99.90;;;;;;5156995;27;48846;-75
2021/11/23 11:38:31;;;;;;;2.80;0.88;;;12.00;99.90;;;;;;5147009;27;39025;-76
2021/11/23 11:41:03;;;;;;;4.47;0.97;;;12.00;99.90;;;;;;5134820;27;38747;-73
2021/11/23 11:43:33;;;;;;;3.78;0.90;;;12.00;99.90;;;;;;5142108;27;49017;-74
2021/11/23 11:45:59;;;;;;;1.25;0.47;;;12.10;99.90;;;;;;5136109;27;35954;-74
2021/11/23 11:48:36;;;;;;;3.25;0.57;;;12.10;99.90;;;;;;5137235;27;37547;-75
2021/11/23 11:51:04;;;;;;;2.40;0.70;;;12.10;99.90;;;;;;5129576;27;39427;-75
2021/11/23 11:53:46;;;;;;;2.72;0.82;;;12.20;99.90;;;;;;5116446;27;37584;-75
2021/11/23 11:56:14;;;;;;;1.57;0.60;;;12.40;99.90;;;;;;5134470;27;37437;-74
2021/11/23 11:58:45;;;;;;;2.60;0.77;;;12.40;99.90;;;;;;5132731;27;40364;-74
2021/11/23 12:01:32;;;;;;;1.70;0.55;;;12.50;99.90;;;;;;5134151;27;38011;-75
2021/11/23 12:04:06;;;;;;;2.05;0.57;;;12.60;99.90;;;;;;5140768;27;38422;-73
2021/11/23 12:06:54;;;;;;;3.10;1.02;;;12.60;99.90;;;;;;5133232;27;48348;-74
2021/11/23 12:09:29;;;;;;;3.47;0.98;;;12.70;99.90;;;;;;5135126;27;38705;-74
2021/11/23 12:12:00;;;;;;;1.40;0.70;;;12.70;99.90;;;;;;5129105;27;38703;-75
2021/11/23 12:14:35;;;;;;;2.47;0.70;;;12.70;99.90;;;;;;5137525;27;39667;-75
2021/11/23 12:17:14;;;;;;;3.25;0.88;;;12.80;99.90;;;;;;5115005;27;36532;-74
2021/11/23 12:19:54;;;;;;;1.13;0.65;;;12.80;99.90;;;;;;5137339;27;38831;-73
2021/11/23 12:22:27;;;;;;;4.72;0.93;;;12.90;99.90;;;;;;5134276;27;39294;-74
2021/11/23 12:25:00;;;;;;;3.22;0.88;;;13.00;99.90;;;;;;5136513;27;38160;-74
2021/11/23 12:27:32;;;;;;;3.97;1.00;;;13.00;99.90;;;;;;5124597;27;36406;-73
2021/11/23 12:29:58;;;;;;;3.58;0.70;;;12.90;99.90;;;;;;5133323;27;35612;-72
2021/11/23 12:32:32;;;;;;;2.10;0.73;;;13.00;99.90;;;;;;5127377;27;37543;-74
2021/11/23 12:34:58;;;;;;;2.97;0.68;;;13.00;99.90;;;;;;5134009;27;38265;-75
2021/11/23 12:37:47;;;;;;;2.83;0.70;;;12.90;99.90;;;;;;5134331;27;37881;-73
2021/11/23 12:40:23;;;;;;;3.20;0.90;;;13.00;99.90;;;;;;5123767;27;38077;-74
2021/11/23 12:42:53;;;;;;;1.20;0.50;;;13.30;99.90;;;;;;5130321;27;38689;-74
2021/11/23 12:45:41;;;;;;;3.70;0.75;;;13.30;99.90;;;;;;5129576;27;39223;-72
2021/11/23 12:48:13;;;;;;;5.30;0.93;;;13.40;99.90;;;;;;5133671;27;37029;-71